sensor_id;sensor_type;location;lat;lon;timestamp;P1;durP1;ratioP1;P2;durP2;ratioP2
3085;SDS011;52812;48.960;9.108;2023-01-15T00:00:39;0.90;;;0.90;;
3085;SDS011;52812;48.960;9.108;2023-01-15T00:03:05;0.80;;;0.80;;
3085;SDS011;52812;48.960;9.108;2023-01-15T00:05:30;1.10;;;0.80;;
3085;SDS011;52812;48.960;9.108;2023-01-15T00:07:59;0.90;;;0.77;;
3085;SDS011;52812;48.960;9.108;2023-01-15T00:10:26;0.87;;;0.70;;
3085;SDS011;52812;48.960;9.108;2023-01-15T00:12:51;0.97;;;0.90;;
3085;SDS011;52812;48.960;9.108;2023-01-15T00:15:17;1.00;;;0.90;;
3085;SDS011;52812;48.960;9.108;2023-01-15T00:17:43;0.90;;;0.80;;
3085;SDS011;52812;48.960;9.108;2023-01-15T00:20:08;0.93;;;0.80;;
3085;SDS011;52812;48.960;9.108;2023-01-15T00:22:34;0.90;;;0.80;;
3085;SDS011;52812;48.960;9.108;2023-01-15T00:25:00;0.70;;;0.70;;
3085;SDS011;52812;48.960;9.108;2023-01-15T00:27:44;0.80;;;0.80;;
3085;SDS011;52812;48.960;9.108;2023-01-15T00:30:11;1.20;;;1.10;;
3085;SDS011;52812;48.960;9.108;2023-01-15T00:32:38;0.90;;;0.80;;
3085;SDS011;52812;48.960;9.108;2023-01-15T00:35:05;0.90;;;0.80;;
3085;SDS011;52812;48.960;9.108;2023-01-15T00:37:31;1.00;;;0.80;;
3085;SDS011;52812;48.960;9.108;2023-01-15T00:39:56;0.70;;;0.70;;
3085;SDS011;52812;48.960;9.108;2023-01-15T00:42:22;0.90;;;0.70;;
3085;SDS011;52812;48.960;9.108;2023-01-15T00:44:47;0.80;;;0.80;;
3085;SDS011;52812;48.960;9.108;2023-01-15T00:47:13;0.90;;;0.73;;
3085;SDS011;52812;48.960;9.108;2023-01-15T00:49:42;0.80;;;0.63;;
3085;SDS011;52812;48.960;9.108;2023-01-15T00:52:09;1.00;;;0.83;;
3085;SDS011;52812;48.960;9.108;2023-01-15T00:54:35;1.07;;;0.80;;
3085;SDS011;52812;48.960;9.108;2023-01-15T00:57:01;0.70;;;0.70;;
3085;SDS011;52812;48.960;9.108;2023-01-15T00:59:26;0.80;;;0.80;;
3085;SDS011;52812;48.960;9.108;2023-01-15T01:01:52;1.20;;;0.93;;
3085;SDS011;52812;48.960;9.108;2023-01-15T01:04:17;0.80;;;0.80;;
3085;SDS011;52812;48.960;9.108;2023-01-15T01:06:43;0.93;;;0.83;;
3085;SDS011;52812;48.960;9.108;2023-01-15T01:09:11;0.80;;;0.73;;
3085;SDS011;52812;48.960;9.108;2023-01-15T01:11:37;0.80;;;0.73;;
3085;SDS011;52812;48.960;9.108;2023-01-15T01:14:02;1.00;;;0.90;;
3085;SDS011;52812;48.960;9.108;2023-01-15T01:19:00;1.10;;;0.80;;
3085;SDS011;52812;48.960;9.108;2023-01-15T01:21:27;0.80;;;0.80;;
3085;SDS011;52812;48.960;9.108;2023-01-15T01:23:54;0.90;;;0.90;;
3085;SDS011;52812;48.960;9.108;2023-01-15T01:26:22;1.47;;;0.70;;
3085;SDS011;52812;48.960;9.108;2023-01-15T01:28:49;1.23;;;0.70;;
3085;SDS011;52812;48.960;9.108;2023-01-15T01:31:16;0.90;;;0.80;;
3085;SDS011;52812;48.960;9.108;2023-01-15T01:33:42;0.73;;;0.70;;
3085;SDS011;52812;48.960;9.108;2023-01-15T01:36:07;0.83;;;0.80;;
3085;SDS011;52812;48.960;9.108;2023-01-15T01:38:33;0.80;;;0.70;;
3085;SDS011;52812;48.960;9.108;2023-01-15T01:40:58;0.80;;;0.70;;
3085;SDS011;52812;48.960;9.108;2023-01-15T01:43:25;0.80;;;0.80;;
3085;SDS011;52812;48.960;9.108;2023-01-15T01:45:53;0.70;;;0.60;;
3085;SDS011;52812;48.960;9.108;2023-01-15T01:48:20;1.00;;;0.80;;
3085;SDS011;52812;48.960;9.108;2023-01-15T01:50:55;0.80;;;0.80;;
3085;SDS011;52812;48.960;9.108;2023-01-15T01:53:25;1.00;;;0.70;;
3085;SDS011;52812;48.960;9.108;2023-01-15T01:55:53;0.80;;;0.70;;
3085;SDS011;52812;48.960;9.108;2023-01-15T01:58:20;1.63;;;0.80;;
3085;SDS011;52812;48.960;9.108;2023-01-15T02:00:48;0.80;;;0.70;;
3085;SDS011;52812;48.960;9.108;2023-01-15T02:03:15;0.90;;;0.80;;
3085;SDS011;52812;48.960;9.108;2023-01-15T02:05:49;0.93;;;0.70;;
3085;SDS011;52812;48.960;9.108;2023-01-15T02:08:18;0.80;;;0.80;;
3085;SDS011;52812;48.960;9.108;2023-01-15T02:10:44;0.80;;;0.80;;
3085;SDS011;52812;48.960;9.108;2023-01-15T02:13:21;0.70;;;0.70;;
3085;SDS011;52812;48.960;9.108;2023-01-15T02:27:53;0.80;;;0.70;;
3085;SDS011;52812;48.960;9.108;2023-01-15T02:32:58;0.80;;;0.80;;
3085;SDS011;52812;48.960;9.108;2023-01-15T02:35:48;0.80;;;0.80;;
3085;SDS011;52812;48.960;9.108;2023-01-15T02:38:25;0.70;;;0.70;;
3085;SDS011;52812;48.960;9.108;2023-01-15T02:40:55;0.90;;;0.70;;
3085;SDS011;52812;48.960;9.108;2023-01-15T02:43:23;0.70;;;0.70;;
3085;SDS011;52812;48.960;9.108;2023-01-15T02:45:52;0.70;;;0.63;;
3085;SDS011;52812;48.960;9.108;2023-01-15T02:48:22;0.80;;;0.77;;
3085;SDS011;52812;48.960;9.108;2023-01-15T02:51:00;1.23;;;0.70;;
3085;SDS011;52812;48.960;9.108;2023-01-15T02:53:31;0.70;;;0.70;;
3085;SDS011;52812;48.960;9.108;2023-01-15T02:56:02;0.80;;;0.70;;
3085;SDS011;52812;48.960;9.108;2023-01-15T02:58:34;1.17;;;0.80;;
3085;SDS011;52812;48.960;9.108;2023-01-15T03:01:05;0.80;;;0.80;;
3085;SDS011;52812;48.960;9.108;2023-01-15T03:06:40;1.10;;;0.73;;
3085;SDS011;52812;48.960;9.108;2023-01-15T03:09:16;0.70;;;0.70;;
3085;SDS011;52812;48.960;9.108;2023-01-15T03:11:46;0.80;;;0.70;;
3085;SDS011;52812;48.960;9.108;2023-01-15T03:14:19;1.20;;;0.70;;
3085;SDS011;52812;48.960;9.108;2023-01-15T03:16:53;0.80;;;0.70;;
3085;SDS011;52812;48.960;9.108;2023-01-15T03:19:24;0.80;;;0.70;;
3085;SDS011;52812;48.960;9.108;2023-01-15T03:24:46;0.77;;;0.70;;
3085;SDS011;52812;48.960;9.108;2023-01-15T03:27:12;0.70;;;0.60;;
3085;SDS011;52812;48.960;9.108;2023-01-15T03:29:41;0.70;;;0.60;;
3085;SDS011;52812;48.960;9.108;2023-01-15T03:32:19;0.70;;;0.70;;
3085;SDS011;52812;48.960;9.108;2023-01-15T03:34:50;1.67;;;0.70;;
3085;SDS011;52812;48.960;9.108;2023-01-15T03:37:21;0.77;;;0.70;;
3085;SDS011;52812;48.960;9.108;2023-01-15T03:39:48;0.83;;;0.70;;
3085;SDS011;52812;48.960;9.108;2023-01-15T03:45:05;0.83;;;0.80;;
3085;SDS011;52812;48.960;9.108;2023-01-15T03:47:58;0.90;;;0.70;;
3085;SDS011;52812;48.960;9.108;2023-01-15T03:50:38;0.70;;;0.60;;
3085;SDS011;52812;48.960;9.108;2023-01-15T03:55:58;1.10;;;0.70;;
3085;SDS011;52812;48.960;9.108;2023-01-15T04:01:24;0.70;;;0.70;;
3085;SDS011;52812;48.960;9.108;2023-01-15T04:03:56;1.10;;;0.70;;
3085;SDS011;52812;48.960;9.108;2023-01-15T04:06:23;0.90;;;0.70;;
3085;SDS011;52812;48.960;9.108;2023-01-15T04:08:50;0.80;;;0.60;;
3085;SDS011;52812;48.960;9.108;2023-01-15T04:11:20;1.00;;;0.60;;
3085;SDS011;52812;48.960;9.108;2023-01-15T04:13:48;0.70;;;0.60;;
3085;SDS011;52812;48.960;9.108;2023-01-15T04:16:15;0.70;;;0.63;;
3085;SDS011;52812;48.960;9.108;2023-01-15T04:18:43;0.70;;;0.70;;
3085;SDS011;52812;48.960;9.108;2023-01-15T04:21:09;0.80;;;0.70;;
3085;SDS011;52812;48.960;9.108;2023-01-15T04:23:34;0.80;;;0.60;;
3085;SDS011;52812;48.960;9.108;2023-01-15T04:26:00;1.07;;;0.70;;
3085;SDS011;52812;48.960;9.108;2023-01-15T04:28:25;0.70;;;0.70;;
3085;SDS011;52812;48.960;9.108;2023-01-15T04:30:51;0.70;;;0.60;;
3085;SDS011;52812;48.960;9.108;2023-01-15T04:33:16;1.27;;;0.70;;
3085;SDS011;52812;48.960;9.108;2023-01-15T04:35:42;0.80;;;0.60;;
3085;SDS011;52812;48.960;9.108;2023-01-15T04:38:08;0.83;;;0.80;;
3085;SDS011;52812;48.960;9.108;2023-01-15T04:40:34;0.73;;;0.67;;
3085;SDS011;52812;48.960;9.108;2023-01-15T04:43:18;0.70;;;0.60;;
3085;SDS011;52812;48.960;9.108;2023-01-15T04:46:02;0.70;;;0.60;;
3085;SDS011;52812;48.960;9.108;2023-01-15T04:48:27;0.80;;;0.70;;
3085;SDS011;52812;48.960;9.108;2023-01-15T04:50:53;0.70;;;0.60;;
3085;SDS011;52812;48.960;9.108;2023-01-15T04:53:19;0.97;;;0.77;;
3085;SDS011;52812;48.960;9.108;2023-01-15T04:55:44;0.80;;;0.80;;
3085;SDS011;52812;48.960;9.108;2023-01-15T04:58:10;0.70;;;0.60;;
3085;SDS011;52812;48.960;9.108;2023-01-15T05:00:36;1.23;;;0.80;;
3085;SDS011;52812;48.960;9.108;2023-01-15T05:03:01;0.70;;;0.60;;
3085;SDS011;52812;48.960;9.108;2023-01-15T05:05:27;0.80;;;0.70;;
3085;SDS011;52812;48.960;9.108;2023-01-15T05:07:52;0.70;;;0.70;;
3085;SDS011;52812;48.960;9.108;2023-01-15T05:10:18;0.80;;;0.80;;
3085;SDS011;52812;48.960;9.108;2023-01-15T05:12:43;0.70;;;0.70;;
3085;SDS011;52812;48.960;9.108;2023-01-15T05:15:09;0.80;;;0.70;;
3085;SDS011;52812;48.960;9.108;2023-01-15T05:17:34;0.77;;;0.70;;
3085;SDS011;52812;48.960;9.108;2023-01-15T05:20:00;0.80;;;0.80;;
3085;SDS011;52812;48.960;9.108;2023-01-15T05:22:27;0.70;;;0.70;;
3085;SDS011;52812;48.960;9.108;2023-01-15T05:24:53;0.83;;;0.80;;
3085;SDS011;52812;48.960;9.108;2023-01-15T05:27:18;0.70;;;0.70;;
3085;SDS011;52812;48.960;9.108;2023-01-15T05:29:44;0.90;;;0.80;;
3085;SDS011;52812;48.960;9.108;2023-01-15T05:32:09;1.33;;;0.70;;
3085;SDS011;52812;48.960;9.108;2023-01-15T05:34:35;0.70;;;0.70;;
3085;SDS011;52812;48.960;9.108;2023-01-15T05:37:01;0.80;;;0.70;;
3085;SDS011;52812;48.960;9.108;2023-01-15T05:39:26;0.80;;;0.80;;
3085;SDS011;52812;48.960;9.108;2023-01-15T05:41:52;0.80;;;0.80;;
3085;SDS011;52812;48.960;9.108;2023-01-15T05:44:22;0.70;;;0.70;;
3085;SDS011;52812;48.960;9.108;2023-01-15T05:46:52;1.00;;;0.90;;
3085;SDS011;52812;48.960;9.108;2023-01-15T05:49:21;1.10;;;1.00;;
3085;SDS011;52812;48.960;9.108;2023-01-15T05:51:49;1.23;;;0.90;;
3085;SDS011;52812;48.960;9.108;2023-01-15T05:54:16;0.80;;;0.80;;
3085;SDS011;52812;48.960;9.108;2023-01-15T05:56:44;1.10;;;0.80;;
3085;SDS011;52812;48.960;9.108;2023-01-15T05:59:10;1.00;;;0.90;;
3085;SDS011;52812;48.960;9.108;2023-01-15T06:01:36;1.47;;;0.90;;
3085;SDS011;52812;48.960;9.108;2023-01-15T06:04:03;1.00;;;0.90;;
3085;SDS011;52812;48.960;9.108;2023-01-15T06:06:30;0.80;;;0.80;;
3085;SDS011;52812;48.960;9.108;2023-01-15T06:08:56;0.83;;;0.83;;
3085;SDS011;52812;48.960;9.108;2023-01-15T06:11:22;1.00;;;0.90;;
3085;SDS011;52812;48.960;9.108;2023-01-15T06:13:48;0.83;;;0.80;;
3085;SDS011;52812;48.960;9.108;2023-01-15T06:16:14;0.83;;;0.83;;
3085;SDS011;52812;48.960;9.108;2023-01-15T06:18:40;1.23;;;1.13;;
3085;SDS011;52812;48.960;9.108;2023-01-15T06:21:06;1.03;;;0.93;;
3085;SDS011;52812;48.960;9.108;2023-01-15T06:23:34;1.00;;;0.90;;
3085;SDS011;52812;48.960;9.108;2023-01-15T06:26:05;1.27;;;1.00;;
3085;SDS011;52812;48.960;9.108;2023-01-15T06:28:34;1.10;;;1.00;;
3085;SDS011;52812;48.960;9.108;2023-01-15T06:31:02;2.27;;;1.67;;
3085;SDS011;52812;48.960;9.108;2023-01-15T06:33:29;2.87;;;2.20;;
3085;SDS011;52812;48.960;9.108;2023-01-15T06:35:54;1.70;;;1.60;;
3085;SDS011;52812;48.960;9.108;2023-01-15T06:38:20;1.30;;;1.10;;
3085;SDS011;52812;48.960;9.108;2023-01-15T06:40:46;1.20;;;1.10;;
3085;SDS011;52812;48.960;9.108;2023-01-15T06:43:11;1.83;;;1.30;;
3085;SDS011;52812;48.960;9.108;2023-01-15T06:45:56;1.70;;;1.43;;
3085;SDS011;52812;48.960;9.108;2023-01-15T06:48:40;2.23;;;1.70;;
3085;SDS011;52812;48.960;9.108;2023-01-15T06:51:07;1.80;;;1.50;;
3085;SDS011;52812;48.960;9.108;2023-01-15T06:53:32;1.73;;;1.63;;
3085;SDS011;52812;48.960;9.108;2023-01-15T06:55:59;1.40;;;1.30;;
3085;SDS011;52812;48.960;9.108;2023-01-15T06:58:25;1.20;;;1.10;;
3085;SDS011;52812;48.960;9.108;2023-01-15T07:00:51;1.40;;;1.13;;
3085;SDS011;52812;48.960;9.108;2023-01-15T07:03:20;1.47;;;1.20;;
3085;SDS011;52812;48.960;9.108;2023-01-15T07:05:47;1.30;;;1.20;;
3085;SDS011;52812;48.960;9.108;2023-01-15T07:08:13;1.17;;;1.07;;
3085;SDS011;52812;48.960;9.108;2023-01-15T07:10:38;1.20;;;1.00;;
3085;SDS011;52812;48.960;9.108;2023-01-15T07:13:05;1.20;;;1.10;;
3085;SDS011;52812;48.960;9.108;2023-01-15T07:15:32;1.30;;;1.20;;
3085;SDS011;52812;48.960;9.108;2023-01-15T07:17:59;1.87;;;1.63;;
3085;SDS011;52812;48.960;9.108;2023-01-15T07:20:24;1.43;;;1.30;;
3085;SDS011;52812;48.960;9.108;2023-01-15T07:22:50;2.00;;;1.37;;
3085;SDS011;52812;48.960;9.108;2023-01-15T07:25:16;1.23;;;1.10;;
3085;SDS011;52812;48.960;9.108;2023-01-15T07:27:42;1.20;;;1.10;;
3085;SDS011;52812;48.960;9.108;2023-01-15T07:30:10;1.23;;;1.10;;
3085;SDS011;52812;48.960;9.108;2023-01-15T07:32:36;1.30;;;1.20;;
3085;SDS011;52812;48.960;9.108;2023-01-15T07:35:02;2.33;;;1.60;;
3085;SDS011;52812;48.960;9.108;2023-01-15T07:37:28;2.00;;;1.77;;
3085;SDS011;52812;48.960;9.108;2023-01-15T07:39:53;1.30;;;1.20;;
3085;SDS011;52812;48.960;9.108;2023-01-15T07:42:19;2.23;;;1.50;;
3085;SDS011;52812;48.960;9.108;2023-01-15T07:45:03;1.50;;;1.40;;
3085;SDS011;52812;48.960;9.108;2023-01-15T07:47:48;1.80;;;1.40;;
3085;SDS011;52812;48.960;9.108;2023-01-15T07:50:32;1.97;;;1.50;;
3085;SDS011;52812;48.960;9.108;2023-01-15T07:52:57;1.47;;;1.37;;
3085;SDS011;52812;48.960;9.108;2023-01-15T07:55:23;1.37;;;1.20;;
3085;SDS011;52812;48.960;9.108;2023-01-15T07:57:49;1.87;;;1.50;;
3085;SDS011;52812;48.960;9.108;2023-01-15T08:00:17;1.60;;;1.50;;
3085;SDS011;52812;48.960;9.108;2023-01-15T08:02:45;1.60;;;1.50;;
3085;SDS011;52812;48.960;9.108;2023-01-15T08:05:13;1.83;;;1.50;;
3085;SDS011;52812;48.960;9.108;2023-01-15T08:07:40;2.60;;;2.40;;
3085;SDS011;52812;48.960;9.108;2023-01-15T08:10:09;1.50;;;1.40;;
3085;SDS011;52812;48.960;9.108;2023-01-15T08:12:37;1.43;;;1.20;;
3085;SDS011;52812;48.960;9.108;2023-01-15T08:15:21;1.30;;;1.20;;
3085;SDS011;52812;48.960;9.108;2023-01-15T08:17:47;1.70;;;1.60;;
3085;SDS011;52812;48.960;9.108;2023-01-15T08:20:15;1.30;;;1.20;;
3085;SDS011;52812;48.960;9.108;2023-01-15T08:22:42;2.07;;;1.50;;
3085;SDS011;52812;48.960;9.108;2023-01-15T08:25:09;1.80;;;1.67;;
3085;SDS011;52812;48.960;9.108;2023-01-15T08:27:38;2.00;;;1.87;;
3085;SDS011;52812;48.960;9.108;2023-01-15T08:30:05;1.80;;;1.70;;
3085;SDS011;52812;48.960;9.108;2023-01-15T08:32:32;2.03;;;1.83;;
3085;SDS011;52812;48.960;9.108;2023-01-15T08:34:58;1.20;;;1.10;;
3085;SDS011;52812;48.960;9.108;2023-01-15T08:37:23;1.37;;;1.27;;
3085;SDS011;52812;48.960;9.108;2023-01-15T08:39:49;1.60;;;1.50;;
3085;SDS011;52812;48.960;9.108;2023-01-15T08:42:17;2.30;;;1.67;;
3085;SDS011;52812;48.960;9.108;2023-01-15T08:44:46;2.10;;;1.90;;
3085;SDS011;52812;48.960;9.108;2023-01-15T08:47:12;2.10;;;1.70;;
3085;SDS011;52812;48.960;9.108;2023-01-15T08:49:38;1.60;;;1.50;;
3085;SDS011;52812;48.960;9.108;2023-01-15T08:52:04;2.20;;;1.30;;
3085;SDS011;52812;48.960;9.108;2023-01-15T08:54:29;1.90;;;1.60;;
3085;SDS011;52812;48.960;9.108;2023-01-15T08:56:55;1.60;;;1.50;;
3085;SDS011;52812;48.960;9.108;2023-01-15T08:59:22;1.50;;;1.40;;
3085;SDS011;52812;48.960;9.108;2023-01-15T09:01:48;1.53;;;1.43;;
3085;SDS011;52812;48.960;9.108;2023-01-15T09:04:14;1.40;;;1.30;;
3085;SDS011;52812;48.960;9.108;2023-01-15T09:06:41;1.03;;;0.93;;
3085;SDS011;52812;48.960;9.108;2023-01-15T09:09:07;1.00;;;0.90;;
3085;SDS011;52812;48.960;9.108;2023-01-15T09:11:33;1.63;;;1.23;;
3085;SDS011;52812;48.960;9.108;2023-01-15T09:14:00;1.47;;;1.00;;
3085;SDS011;52812;48.960;9.108;2023-01-15T09:16:25;1.20;;;1.10;;
3085;SDS011;52812;48.960;9.108;2023-01-15T09:18:52;1.13;;;1.03;;
3085;SDS011;52812;48.960;9.108;2023-01-15T09:21:18;1.70;;;1.30;;
3085;SDS011;52812;48.960;9.108;2023-01-15T09:23:44;1.67;;;1.57;;
3085;SDS011;52812;48.960;9.108;2023-01-15T09:26:24;2.00;;;1.60;;
3085;SDS011;52812;48.960;9.108;2023-01-15T09:28:59;2.20;;;2.00;;
3085;SDS011;52812;48.960;9.108;2023-01-15T09:31:26;1.87;;;1.50;;
3085;SDS011;52812;48.960;9.108;2023-01-15T09:33:52;0.90;;;0.90;;
3085;SDS011;52812;48.960;9.108;2023-01-15T09:36:19;1.53;;;1.40;;
3085;SDS011;52812;48.960;9.108;2023-01-15T09:38:49;2.00;;;1.80;;
3085;SDS011;52812;48.960;9.108;2023-01-15T09:41:15;1.30;;;1.10;;
3085;SDS011;52812;48.960;9.108;2023-01-15T09:55:32;1.10;;;1.00;;
3085;SDS011;52812;48.960;9.108;2023-01-15T09:58:10;1.40;;;1.30;;
3085;SDS011;52812;48.960;9.108;2023-01-15T10:00:39;1.30;;;1.20;;
3085;SDS011;52812;48.960;9.108;2023-01-15T10:08:37;1.30;;;1.10;;
3085;SDS011;52812;48.960;9.108;2023-01-15T10:16:21;1.33;;;1.23;;
3085;SDS011;52812;48.960;9.108;2023-01-15T10:18:48;1.60;;;1.20;;
3085;SDS011;52812;48.960;9.108;2023-01-15T10:24:04;1.67;;;1.10;;
3085;SDS011;52812;48.960;9.108;2023-01-15T10:26:52;1.50;;;1.27;;
3085;SDS011;52812;48.960;9.108;2023-01-15T10:29:31;1.20;;;1.10;;
3085;SDS011;52812;48.960;9.108;2023-01-15T10:37:49;1.93;;;1.30;;
3085;SDS011;52812;48.960;9.108;2023-01-15T10:40:31;1.40;;;1.30;;
3085;SDS011;52812;48.960;9.108;2023-01-15T10:43:13;1.40;;;1.10;;
3085;SDS011;52812;48.960;9.108;2023-01-15T10:45:53;1.50;;;1.30;;
3085;SDS011;52812;48.960;9.108;2023-01-15T10:48:28;2.30;;;1.90;;
3085;SDS011;52812;48.960;9.108;2023-01-15T10:51:19;2.47;;;1.90;;
3085;SDS011;52812;48.960;9.108;2023-01-15T10:56:35;1.67;;;1.50;;
3085;SDS011;52812;48.960;9.108;2023-01-15T11:01:35;1.70;;;1.40;;
3085;SDS011;52812;48.960;9.108;2023-01-15T11:04:03;1.30;;;1.20;;
3085;SDS011;52812;48.960;9.108;2023-01-15T11:06:29;1.23;;;1.13;;
3085;SDS011;52812;48.960;9.108;2023-01-15T11:08:56;1.50;;;1.40;;
3085;SDS011;52812;48.960;9.108;2023-01-15T11:17:19;1.20;;;1.10;;
3085;SDS011;52812;48.960;9.108;2023-01-15T11:20:12;1.80;;;1.53;;
3085;SDS011;52812;48.960;9.108;2023-01-15T11:22:42;5.53;;;3.27;;
3085;SDS011;52812;48.960;9.108;2023-01-15T11:25:08;2.70;;;1.67;;
3085;SDS011;52812;48.960;9.108;2023-01-15T11:27:35;1.50;;;1.40;;
3085;SDS011;52812;48.960;9.108;2023-01-15T11:30:02;1.37;;;1.27;;
3085;SDS011;52812;48.960;9.108;2023-01-15T11:32:31;1.30;;;1.20;;
3085;SDS011;52812;48.960;9.108;2023-01-15T11:35:02;1.53;;;1.20;;
3085;SDS011;52812;48.960;9.108;2023-01-15T11:37:38;2.80;;;1.73;;
3085;SDS011;52812;48.960;9.108;2023-01-15T11:40:04;1.50;;;1.40;;
3085;SDS011;52812;48.960;9.108;2023-01-15T11:42:32;1.10;;;1.00;;
3085;SDS011;52812;48.960;9.108;2023-01-15T11:45:19;1.13;;;1.10;;
3085;SDS011;52812;48.960;9.108;2023-01-15T11:48:12;1.37;;;1.27;;
3085;SDS011;52812;48.960;9.108;2023-01-15T11:53:48;1.40;;;1.30;;
3085;SDS011;52812;48.960;9.108;2023-01-15T11:56:19;2.90;;;1.70;;
3085;SDS011;52812;48.960;9.108;2023-01-15T11:58:49;1.90;;;1.70;;
3085;SDS011;52812;48.960;9.108;2023-01-15T12:03:56;2.00;;;1.33;;
3085;SDS011;52812;48.960;9.108;2023-01-15T12:06:23;1.20;;;1.10;;
3085;SDS011;52812;48.960;9.108;2023-01-15T12:17:08;1.40;;;0.90;;
3085;SDS011;52812;48.960;9.108;2023-01-15T12:23:11;2.37;;;1.30;;
3085;SDS011;52812;48.960;9.108;2023-01-15T12:31:51;2.07;;;1.13;;
3085;SDS011;52812;48.960;9.108;2023-01-15T12:34:39;1.73;;;1.20;;
3085;SDS011;52812;48.960;9.108;2023-01-15T12:37:25;1.47;;;1.30;;
3085;SDS011;52812;48.960;9.108;2023-01-15T12:42:52;2.93;;;1.37;;
3085;SDS011;52812;48.960;9.108;2023-01-15T12:45:48;3.63;;;1.50;;
3085;SDS011;52812;48.960;9.108;2023-01-15T12:51:12;1.67;;;1.43;;
3085;SDS011;52812;48.960;9.108;2023-01-15T12:53:42;2.63;;;1.60;;
3085;SDS011;52812;48.960;9.108;2023-01-15T12:56:30;2.33;;;1.50;;
3085;SDS011;52812;48.960;9.108;2023-01-15T13:04:43;2.10;;;1.50;;
3085;SDS011;52812;48.960;9.108;2023-01-15T13:12:45;1.27;;;1.13;;
3085;SDS011;52812;48.960;9.108;2023-01-15T13:15:12;2.10;;;1.20;;
3085;SDS011;52812;48.960;9.108;2023-01-15T13:20:53;2.90;;;1.30;;
3085;SDS011;52812;48.960;9.108;2023-01-15T13:32:37;1.20;;;1.00;;
3085;SDS011;52812;48.960;9.108;2023-01-15T13:37:45;2.00;;;1.20;;
3085;SDS011;52812;48.960;9.108;2023-01-15T13:42:59;1.50;;;1.37;;
3085;SDS011;52812;48.960;9.108;2023-01-15T13:48:02;2.30;;;1.00;;
3085;SDS011;52812;48.960;9.108;2023-01-15T13:50:33;1.20;;;1.10;;
3085;SDS011;52812;48.960;9.108;2023-01-15T13:53:02;1.10;;;1.00;;
3085;SDS011;52812;48.960;9.108;2023-01-15T13:55:40;2.03;;;1.37;;
3085;SDS011;52812;48.960;9.108;2023-01-15T13:58:24;1.30;;;1.20;;
3085;SDS011;52812;48.960;9.108;2023-01-15T14:01:02;1.10;;;1.00;;
3085;SDS011;52812;48.960;9.108;2023-01-15T14:03:29;1.17;;;1.00;;
3085;SDS011;52812;48.960;9.108;2023-01-15T14:06:01;3.07;;;1.20;;
3085;SDS011;52812;48.960;9.108;2023-01-15T14:08:38;1.10;;;1.00;;
3085;SDS011;52812;48.960;9.108;2023-01-15T14:14:16;2.03;;;1.13;;
3085;SDS011;52812;48.960;9.108;2023-01-15T14:25:29;1.67;;;1.10;;
3085;SDS011;52812;48.960;9.108;2023-01-15T14:28:20;1.90;;;1.30;;
3085;SDS011;52812;48.960;9.108;2023-01-15T14:36:40;1.40;;;1.20;;
3085;SDS011;52812;48.960;9.108;2023-01-15T14:39:46;1.20;;;1.10;;
3085;SDS011;52812;48.960;9.108;2023-01-15T14:58:35;1.50;;;1.30;;
3085;SDS011;52812;48.960;9.108;2023-01-15T15:01:06;2.53;;;1.33;;
3085;SDS011;52812;48.960;9.108;2023-01-15T15:04:09;2.07;;;1.30;;
3085;SDS011;52812;48.960;9.108;2023-01-15T15:06:39;1.70;;;1.40;;
3085;SDS011;52812;48.960;9.108;2023-01-15T15:09:11;2.23;;;1.40;;
3085;SDS011;52812;48.960;9.108;2023-01-15T15:11:42;5.23;;;1.40;;
3085;SDS011;52812;48.960;9.108;2023-01-15T15:14:30;1.60;;;1.30;;
3085;SDS011;52812;48.960;9.108;2023-01-15T15:16:59;2.80;;;1.10;;
3085;SDS011;52812;48.960;9.108;2023-01-15T15:19:33;4.40;;;1.40;;
3085;SDS011;52812;48.960;9.108;2023-01-15T15:22:05;1.63;;;1.47;;
3085;SDS011;52812;48.960;9.108;2023-01-15T15:24:39;1.67;;;1.57;;
3085;SDS011;52812;48.960;9.108;2023-01-15T15:27:13;1.83;;;1.60;;
3085;SDS011;52812;48.960;9.108;2023-01-15T15:29:41;1.67;;;1.47;;
3085;SDS011;52812;48.960;9.108;2023-01-15T15:32:08;2.13;;;1.50;;
3085;SDS011;52812;48.960;9.108;2023-01-15T15:34:39;1.97;;;1.33;;
3085;SDS011;52812;48.960;9.108;2023-01-15T15:37:14;1.27;;;1.17;;
3085;SDS011;52812;48.960;9.108;2023-01-15T15:39:52;1.30;;;1.20;;
3085;SDS011;52812;48.960;9.108;2023-01-15T15:42:27;2.30;;;1.20;;
3085;SDS011;52812;48.960;9.108;2023-01-15T15:48:28;1.20;;;1.10;;
3085;SDS011;52812;48.960;9.108;2023-01-15T15:54:04;1.30;;;1.20;;
3085;SDS011;52812;48.960;9.108;2023-01-15T15:56:42;1.30;;;1.10;;
3085;SDS011;52812;48.960;9.108;2023-01-15T15:59:13;2.10;;;1.17;;
3085;SDS011;52812;48.960;9.108;2023-01-15T16:02:36;1.73;;;1.23;;
3085;SDS011;52812;48.960;9.108;2023-01-15T16:05:03;3.53;;;1.20;;
3085;SDS011;52812;48.960;9.108;2023-01-15T16:07:43;1.23;;;1.10;;
3085;SDS011;52812;48.960;9.108;2023-01-15T16:10:17;2.33;;;1.20;;
3085;SDS011;52812;48.960;9.108;2023-01-15T16:12:52;1.77;;;1.40;;
3085;SDS011;52812;48.960;9.108;2023-01-15T16:15:38;2.80;;;1.43;;
3085;SDS011;52812;48.960;9.108;2023-01-15T16:18:05;2.00;;;1.67;;
3085;SDS011;52812;48.960;9.108;2023-01-15T16:20:41;4.73;;;2.87;;
3085;SDS011;52812;48.960;9.108;2023-01-15T16:23:17;5.03;;;2.50;;
3085;SDS011;52812;48.960;9.108;2023-01-15T16:25:57;3.50;;;1.90;;
3085;SDS011;52812;48.960;9.108;2023-01-15T16:28:54;3.43;;;1.83;;
3085;SDS011;52812;48.960;9.108;2023-01-15T16:31:24;4.13;;;2.00;;
3085;SDS011;52812;48.960;9.108;2023-01-15T16:33:57;2.83;;;2.13;;
3085;SDS011;52812;48.960;9.108;2023-01-15T16:36:24;2.20;;;1.40;;
3085;SDS011;52812;48.960;9.108;2023-01-15T16:38:51;2.87;;;1.60;;
3085;SDS011;52812;48.960;9.108;2023-01-15T16:41:25;1.63;;;1.53;;
3085;SDS011;52812;48.960;9.108;2023-01-15T16:44:03;2.00;;;1.40;;
3085;SDS011;52812;48.960;9.108;2023-01-15T16:46:31;2.07;;;1.40;;
3085;SDS011;52812;48.960;9.108;2023-01-15T16:51:47;2.13;;;1.70;;
3085;SDS011;52812;48.960;9.108;2023-01-15T16:57:02;2.53;;;2.07;;
3085;SDS011;52812;48.960;9.108;2023-01-15T17:06:58;1.77;;;1.47;;
3085;SDS011;52812;48.960;9.108;2023-01-15T17:09:26;1.93;;;1.40;;
3085;SDS011;52812;48.960;9.108;2023-01-15T17:11:54;2.20;;;1.60;;
3085;SDS011;52812;48.960;9.108;2023-01-15T17:14:24;3.40;;;1.70;;
3085;SDS011;52812;48.960;9.108;2023-01-15T17:19:35;2.53;;;2.30;;
3085;SDS011;52812;48.960;9.108;2023-01-15T17:22:00;2.63;;;1.70;;
3085;SDS011;52812;48.960;9.108;2023-01-15T17:24:26;3.77;;;2.17;;
3085;SDS011;52812;48.960;9.108;2023-01-15T17:26:52;3.80;;;2.30;;
3085;SDS011;52812;48.960;9.108;2023-01-15T17:29:17;3.70;;;1.90;;
3085;SDS011;52812;48.960;9.108;2023-01-15T17:31:43;4.40;;;2.17;;
3085;SDS011;52812;48.960;9.108;2023-01-15T17:34:09;2.27;;;1.70;;
3085;SDS011;52812;48.960;9.108;2023-01-15T17:36:35;3.40;;;2.07;;
3085;SDS011;52812;48.960;9.108;2023-01-15T17:39:01;4.33;;;2.30;;
3085;SDS011;52812;48.960;9.108;2023-01-15T17:41:27;3.30;;;1.80;;
3085;SDS011;52812;48.960;9.108;2023-01-15T17:43:52;1.87;;;1.60;;
3085;SDS011;52812;48.960;9.108;2023-01-15T17:46:18;2.80;;;2.10;;
3085;SDS011;52812;48.960;9.108;2023-01-15T17:48:44;2.33;;;1.67;;
3085;SDS011;52812;48.960;9.108;2023-01-15T17:51:10;2.50;;;2.27;;
3085;SDS011;52812;48.960;9.108;2023-01-15T17:53:38;8.30;;;4.77;;
3085;SDS011;52812;48.960;9.108;2023-01-15T17:56:04;3.90;;;2.63;;
3085;SDS011;52812;48.960;9.108;2023-01-15T17:58:48;3.73;;;2.50;;
3085;SDS011;52812;48.960;9.108;2023-01-15T18:01:35;3.97;;;2.70;;
3085;SDS011;52812;48.960;9.108;2023-01-15T18:07:05;2.83;;;1.70;;
3085;SDS011;52812;48.960;9.108;2023-01-15T18:09:32;1.70;;;1.40;;
3085;SDS011;52812;48.960;9.108;2023-01-15T18:11:59;1.43;;;1.33;;
3085;SDS011;52812;48.960;9.108;2023-01-15T18:14:25;3.70;;;1.53;;
3085;SDS011;52812;48.960;9.108;2023-01-15T18:16:51;2.40;;;1.40;;
3085;SDS011;52812;48.960;9.108;2023-01-15T18:19:16;2.23;;;1.40;;
3085;SDS011;52812;48.960;9.108;2023-01-15T18:21:42;1.80;;;1.70;;
3085;SDS011;52812;48.960;9.108;2023-01-15T18:27:03;1.70;;;1.60;;
3085;SDS011;52812;48.960;9.108;2023-01-15T18:29:28;4.43;;;1.83;;
3085;SDS011;52812;48.960;9.108;2023-01-15T18:31:54;1.70;;;1.40;;
3085;SDS011;52812;48.960;9.108;2023-01-15T18:34:19;3.10;;;1.60;;